createdAt,value
2023-01-17T00:01:57.214Z,97418.89
2023-01-17T00:05:04.214Z,97422.48
2023-01-17T00:07:50.791Z,97424.54
2023-01-17T00:10:23.954Z,97428.96
2023-01-17T00:13:15.928Z,97423.41
2023-01-17T00:16:07.934Z,97427.52
2023-01-17T00:19:14.034Z,97422.52
2023-01-17T00:22:00.769Z,97427.46
2023-01-17T00:24:50.033Z,97430.21
2023-01-17T00:27:24.938Z,97433.08
2023-01-17T00:30:15.004Z,97427.64
2023-01-17T00:33:03.990Z,97423.55
2023-01-17T00:35:55.814Z,97421.01
2023-01-17T00:38:28.458Z,97418.80
2023-01-17T00:41:15.690Z,97413.54
2023-01-17T00:44:02.345Z,97413.11
2023-01-17T00:46:49.336Z,97410.95
2023-01-17T00:49:35.314Z,97414.13
2023-01-17T00:52:21.680Z,97411.79
2023-01-17T00:55:07.639Z,97408.38
2023-01-17T00:57:53.919Z,97413.09
2023-01-17T01:00:40.275Z,97414.80
2023-01-17T01:03:29.218Z,97419.66
2023-01-17T01:06:15.906Z,97427.58
2023-01-17T01:09:01.835Z,97429.04
2023-01-17T01:11:49.023Z,97429.60
2023-01-17T01:14:57.228Z,97428.98
2023-01-17T01:17:47.600Z,97431.63
2023-01-17T01:20:58.669Z,97431.48
2023-01-17T01:23:44.603Z,97434.60
2023-01-17T01:26:50.683Z,97428.95
2023-01-17T01:29:39.634Z,97429.36
2023-01-17T01:32:25.655Z,97430.28
2023-01-17T01:34:59.438Z,97433.95
2023-01-17T01:37:52.440Z,97439.35
2023-01-17T01:40:47.939Z,97434.95
2023-01-17T01:43:44.187Z,97432.86
2023-01-17T01:46:38.480Z,97430.84
2023-01-17T01:49:35.399Z,97426.02
2023-01-17T01:52:29.489Z,97417.39
2023-01-17T01:55:29.673Z,97408.65
2023-01-17T01:58:26.670Z,97402.06
2023-01-17T02:01:30.566Z,97393.84
2023-01-17T02:04:21.833Z,97399.28
2023-01-17T02:07:19.887Z,97399.77
2023-01-17T02:10:10.807Z,97401.23
2023-01-17T02:13:01.605Z,97409.21
2023-01-17T02:16:10.770Z,97406.52
2023-01-17T02:18:53.743Z,97411.17
2023-01-17T02:22:03.314Z,97419.27
2023-01-17T02:25:15.987Z,97421.73
2023-01-17T02:28:32.271Z,97412.30
2023-01-17T02:31:30.536Z,97421.02
2023-01-17T02:34:37.572Z,97421.97
2023-01-17T02:37:34.115Z,97415.84
2023-01-17T02:40:31.472Z,97409.36
2023-01-17T02:43:08.076Z,97403.41
2023-01-17T02:45:56.630Z,97402.36
2023-01-17T02:48:49.389Z,97394.34
2023-01-17T02:52:01.744Z,97384.95
2023-01-17T02:55:15.174Z,97378.15
2023-01-17T02:58:22.724Z,97377.54
2023-01-17T03:01:35.958Z,97377.04
2023-01-17T03:04:33.811Z,97386.11
2023-01-17T03:07:25.225Z,97385.08
2023-01-17T03:10:18.540Z,97383.74
2023-01-17T03:13:12.684Z,97383.21
2023-01-17T03:15:44.085Z,97390.86
2023-01-17T03:18:18.407Z,97398.30
2023-01-17T03:21:26.254Z,97403.79
2023-01-17T03:24:17.918Z,97407.29
2023-01-17T03:27:08.744Z,97412.92
2023-01-17T03:30:05.791Z,97417.00
2023-01-17T03:33:02.639Z,97411.61
2023-01-17T03:35:59.540Z,97401.61
2023-01-17T03:38:48.032Z,97403.41
2023-01-17T03:41:40.747Z,97397.29
2023-01-17T03:44:35.642Z,97392.39
2023-01-17T03:47:25.604Z,97398.63
2023-01-17T03:50:19.265Z,97402.91
2023-01-17T03:53:17.031Z,97400.16
2023-01-17T03:55:47.668Z,97403.38
2023-01-17T03:58:38.125Z,97400.33
2023-01-17T04:01:29.084Z,97400.38
2023-01-17T04:04:31.459Z,97404.57
2023-01-17T04:07:20.363Z,97408.98
2023-01-17T04:10:16.901Z,97408.87
2023-01-17T04:13:16.480Z,97412.38
2023-01-17T04:16:11.532Z,97419.84
2023-01-17T04:19:17.096Z,97416.27
2023-01-17T04:22:10.794Z,97421.52
2023-01-17T04:25:01.350Z,97424.54
2023-01-17T04:27:53.491Z,97421.38
2023-01-17T04:30:43.320Z,97420.98
2023-01-17T04:33:41.942Z,97421.27
2023-01-17T04:36:31.704Z,97417.55
2023-01-17T04:39:22.416Z,97417.98
2023-01-17T04:45:01.175Z,97427.17
2023-01-17T04:47:37.624Z,97425.15
2023-01-17T04:50:29.044Z,97426.57
2023-01-17T04:53:00.608Z,97428.81
2023-01-17T04:56:04.653Z,97423.77
2023-01-17T04:59:16.641Z,97428.02
2023-01-17T05:02:11.951Z,97431.09
2023-01-17T05:05:03.441Z,97430.02
2023-01-17T05:07:58.251Z,97437.46
2023-01-17T05:10:30.784Z,97440.80
2023-01-17T05:13:23.441Z,97442.15
2023-01-17T05:16:14.769Z,97438.84
2023-01-17T05:18:43.496Z,97417.48
2023-01-17T05:21:19.657Z,97411.52
2023-01-17T05:24:09.857Z,97415.06
2023-01-17T05:27:04.367Z,97423.08
2023-01-17T05:29:56.435Z,97418.55
2023-01-17T05:32:31.785Z,97415.90
2023-01-17T05:35:29.428Z,97422.14
2023-01-17T05:38:29.035Z,97421.85
2023-01-17T05:41:19.717Z,97421.00
2023-01-17T05:44:09.370Z,97427.94
2023-01-17T05:46:59.649Z,97424.52
2023-01-17T05:49:58.846Z,97433.63
2023-01-17T05:52:52.615Z,97440.11
2023-01-17T05:55:27.220Z,97445.05
2023-01-17T05:58:16.398Z,97450.64
2023-01-17T06:01:19.881Z,97459.23
2023-01-17T06:03:56.010Z,97459.52
2023-01-17T06:06:44.451Z,97457.86
2023-01-17T06:09:34.496Z,97458.20
2023-01-17T06:12:23.601Z,97456.23
2023-01-17T06:15:22.949Z,97461.34
2023-01-17T06:18:20.495Z,97460.11
2023-01-17T06:21:01.338Z,97462.81
2023-01-17T06:23:50.726Z,97461.86
2023-01-17T06:26:40.544Z,97461.65
2023-01-17T06:29:37.773Z,97467.65
2023-01-17T06:32:35.650Z,97471.23
2023-01-17T06:35:03.355Z,97472.10
2023-01-17T06:37:30.930Z,97476.57
2023-01-17T06:39:59.073Z,97477.09
2023-01-17T06:42:30.052Z,97475.89
2023-01-17T06:44:58.215Z,97477.27
2023-01-17T06:47:27.599Z,97476.83
2023-01-17T06:49:58.081Z,97480.88
2023-01-17T06:52:26.290Z,97485.35
2023-01-17T06:54:57.283Z,97485.00
2023-01-17T06:57:31.040Z,97489.27
2023-01-17T06:59:58.908Z,97491.46
2023-01-17T07:02:28.338Z,97495.38
2023-01-17T07:04:57.164Z,97494.76
2023-01-17T07:07:25.276Z,97499.39
2023-01-17T07:09:54.953Z,97501.74
2023-01-17T07:12:22.562Z,97508.29
2023-01-17T07:14:50.359Z,97511.34
2023-01-17T07:17:19.240Z,97512.84
2023-01-17T07:20:15.551Z,97517.56
2023-01-17T07:22:48.572Z,97517.32
2023-01-17T07:25:19.427Z,97517.84
2023-01-17T07:27:50.194Z,97522.57
2023-01-17T07:30:18.943Z,97521.23
2023-01-17T07:32:56.019Z,97524.55
2023-01-17T07:35:25.973Z,97524.54
2023-01-17T07:37:54.917Z,97522.27
2023-01-17T07:40:22.761Z,97510.58
2023-01-17T07:42:50.471Z,97514.45
2023-01-17T07:45:19.262Z,97517.85
2023-01-17T07:48:00.996Z,97519.35
2023-01-17T07:50:28.582Z,97526.00
2023-01-17T07:52:59.331Z,97527.77
2023-01-17T07:55:28.138Z,97530.92
2023-01-17T07:57:57.419Z,97535.84
2023-01-17T08:00:30.315Z,97542.02
2023-01-17T08:03:00.672Z,97540.16
2023-01-17T08:05:30.344Z,97545.98
2023-01-17T08:08:01.800Z,97547.98
2023-01-17T08:10:30.450Z,97549.02
2023-01-17T08:13:00.451Z,97557.31
2023-01-17T08:15:28.333Z,97564.48
2023-01-17T08:18:00.248Z,97567.91
2023-01-17T08:20:28.371Z,97571.73
2023-01-17T08:23:00.097Z,97573.48
2023-01-17T08:25:29.969Z,97575.88
2023-01-17T08:27:58.401Z,97570.95
2023-01-17T08:30:27.655Z,97575.38
2023-01-17T08:32:55.973Z,97580.42
2023-01-17T08:35:26.172Z,97584.04
2023-01-17T08:37:55.772Z,97591.20
2023-01-17T08:40:25.052Z,97597.96
2023-01-17T08:43:00.876Z,97593.68
2023-01-17T08:45:31.357Z,97597.77
2023-01-17T08:47:59.784Z,97598.20
2023-01-17T08:50:27.777Z,97600.74
2023-01-17T08:53:01.280Z,97602.69
2023-01-17T08:55:29.775Z,97599.92
2023-01-17T08:57:57.701Z,97600.01
2023-01-17T09:00:26.521Z,97602.77
2023-01-17T09:02:54.226Z,97599.81
2023-01-17T09:05:26.967Z,97604.63
2023-01-17T09:07:56.167Z,97602.72
2023-01-17T09:10:24.518Z,97604.66
2023-01-17T09:12:54.138Z,97604.72
2023-01-17T09:15:23.448Z,97603.67
2023-01-17T09:17:55.095Z,97603.90
2023-01-17T09:20:24.842Z,97605.93
2023-01-17T09:22:53.659Z,97611.19
2023-01-17T09:25:25.951Z,97611.37
2023-01-17T09:27:53.571Z,97608.98
2023-01-17T09:30:23.767Z,97610.59
2023-01-17T09:32:57.841Z,97609.90
2023-01-17T09:35:25.472Z,97603.22
2023-01-17T09:37:57.342Z,97604.44
2023-01-17T09:40:26.632Z,97602.79
2023-01-17T09:43:08.816Z,97598.05
2023-01-17T09:45:42.645Z,97598.61
2023-01-17T09:48:28.824Z,97596.88
2023-01-17T09:51:01.327Z,97603.64
2023-01-17T09:53:37.147Z,97606.92
2023-01-17T09:56:20.768Z,97608.44
2023-01-17T09:58:59.553Z,97606.91
2023-01-17T10:01:38.576Z,97607.58
2023-01-17T10:04:20.211Z,97611.52
2023-01-17T10:07:05.782Z,97608.82
2023-01-17T10:09:49.454Z,97607.27
2023-01-17T10:12:33.064Z,97608.88
2023-01-17T10:15:28.951Z,97621.39
2023-01-17T10:18:16.619Z,97622.30
2023-01-17T10:20:56.270Z,97624.34
2023-01-17T10:23:43.394Z,97626.80
2023-01-17T10:26:20.776Z,97622.71
2023-01-17T10:28:50.954Z,97627.07
2023-01-17T10:31:25.166Z,97629.83
2023-01-17T10:33:57.372Z,97630.77
2023-01-17T10:36:27.374Z,97632.98
2023-01-17T10:39:03.835Z,97626.54
2023-01-17T10:41:36.872Z,97629.17
2023-01-17T10:44:12.366Z,97633.69
2023-01-17T10:46:51.373Z,97638.01
2023-01-17T10:49:21.921Z,97639.11
2023-01-17T10:52:12.226Z,97640.71
2023-01-17T10:54:59.712Z,97640.95
2023-01-17T10:57:31.927Z,97636.98
2023-01-17T11:00:01.770Z,97638.69
2023-01-17T11:02:36.454Z,97639.48
2023-01-17T11:05:20.759Z,97637.70
2023-01-17T11:10:48.509Z,97637.33
2023-01-17T11:13:24.769Z,97631.59
2023-01-17T11:15:57.217Z,97637.37
2023-01-17T11:18:31.376Z,97638.95
2023-01-17T11:21:14.835Z,97636.16
2023-01-17T11:23:47.387Z,97629.67
2023-01-17T11:26:25.444Z,97620.84
2023-01-17T11:29:12.428Z,97618.23
2023-01-17T11:34:31.287Z,97623.30
2023-01-17T11:37:16.059Z,97622.92
2023-01-17T11:39:47.408Z,97624.89
2023-01-17T11:42:38.739Z,97623.25
2023-01-17T11:45:25.585Z,97626.23
2023-01-17T11:48:18.115Z,97628.84
2023-01-17T11:50:55.343Z,97629.03
2023-01-17T11:53:26.827Z,97631.52
2023-01-17T11:56:01.237Z,97629.11
2023-01-17T11:58:33.609Z,97633.38
2023-01-17T12:01:15.606Z,97627.70
2023-01-17T12:04:28.922Z,97625.17
2023-01-17T12:07:26.262Z,97632.92
2023-01-17T12:10:07.482Z,97631.89
2023-01-17T12:13:07.241Z,97627.46
2023-01-17T12:15:53.305Z,97620.86
2023-01-17T12:18:39.503Z,97621.79
2023-01-17T12:21:20.924Z,97613.23
2023-01-17T12:24:10.033Z,97613.17
2023-01-17T12:26:41.992Z,97612.13
2023-01-17T12:29:48.058Z,97604.02
2023-01-17T12:32:41.197Z,97603.94
2023-01-17T12:35:18.607Z,97611.83
2023-01-17T12:38:04.165Z,97613.86
2023-01-17T12:40:42.166Z,97618.02
2023-01-17T12:43:19.137Z,97618.76
2023-01-17T12:45:47.186Z,97613.58
2023-01-17T12:48:22.870Z,97612.79
2023-01-17T12:50:59.009Z,97609.73
2023-01-17T12:53:39.910Z,97607.41
2023-01-17T12:56:13.987Z,97604.27
2023-01-17T12:58:45.898Z,97607.34
2023-01-17T13:01:23.061Z,97605.68
2023-01-17T13:04:06.855Z,97607.42
2023-01-17T13:06:54.276Z,97615.19
2023-01-17T13:09:23.877Z,97620.80
2023-01-17T13:11:55.153Z,97621.95
2023-01-17T13:14:24.622Z,97617.68
2023-01-17T13:16:59.518Z,97621.45
2023-01-17T13:19:46.379Z,97621.34
2023-01-17T13:22:21.725Z,97630.46
2023-01-17T13:24:59.788Z,97640.33
2023-01-17T13:27:44.394Z,97648.05
2023-01-17T13:30:43.575Z,97657.17
2023-01-17T13:33:36.678Z,97661.77
2023-01-17T13:36:29.668Z,97669.49
2023-01-17T13:39:38.664Z,97675.36
2023-01-17T13:42:27.027Z,97683.31
2023-01-17T13:44:55.396Z,97687.12
2023-01-17T13:47:42.795Z,97695.16
2023-01-17T13:50:27.797Z,97694.54
2023-01-17T13:52:57.306Z,97693.34
2023-01-17T13:55:47.027Z,97687.39
2023-01-17T13:58:53.899Z,97681.60
2023-01-17T14:01:49.790Z,97685.64
2023-01-17T14:04:17.700Z,97696.95
2023-01-17T14:06:56.023Z,97704.13
2023-01-17T14:09:36.356Z,97716.48
2023-01-17T14:12:25.185Z,97724.55
2023-01-17T14:14:59.851Z,97735.42
2023-01-17T14:17:50.158Z,97750.50
2023-01-17T14:21:03.598Z,97760.15
2023-01-17T14:24:06.620Z,97771.05
2023-01-17T14:26:55.321Z,97783.31
2023-01-17T14:29:46.217Z,97792.79
2023-01-17T14:32:18.343Z,97802.10
2023-01-17T14:34:48.533Z,97810.13
2023-01-17T14:37:29.768Z,97810.55
2023-01-17T14:39:57.355Z,97811.56
2023-01-17T14:42:28.947Z,97818.35
2023-01-17T14:45:01.397Z,97821.58
2023-01-17T14:47:35.432Z,97820.16
2023-01-17T14:50:15.796Z,97819.04
2023-01-17T14:52:44.378Z,97818.05
2023-01-17T14:55:17.235Z,97824.14
2023-01-17T14:57:57.216Z,97821.65
2023-01-17T15:00:31.271Z,97827.38
2023-01-17T15:03:03.188Z,97828.75
2023-01-17T15:05:33.777Z,97826.50
2023-01-17T15:08:02.198Z,97827.30
2023-01-17T15:10:32.606Z,97832.80
2023-01-17T15:13:09.840Z,97835.20
2023-01-17T15:15:39.224Z,97840.02
2023-01-17T15:18:19.231Z,97844.60
2023-01-17T15:20:52.931Z,97844.71
2023-01-17T15:23:25.126Z,97838.78
2023-01-17T15:25:54.696Z,97833.66
2023-01-17T15:28:34.956Z,97831.52
2023-01-17T15:31:16.929Z,97829.79
2023-01-17T15:33:46.773Z,97824.37
2023-01-17T15:36:27.235Z,97825.99
2023-01-17T15:38:59.458Z,97827.59
2023-01-17T15:41:33.754Z,97832.81
2023-01-17T15:44:02.616Z,97830.59
2023-01-17T15:46:47.365Z,97829.17
2023-01-17T15:49:36.501Z,97831.27
2023-01-17T15:52:16.197Z,97829.90
2023-01-17T15:54:53.135Z,97827.12
2023-01-17T15:57:30.400Z,97816.38
2023-01-17T16:00:19.662Z,97818.59
2023-01-17T16:02:49.894Z,97820.05
2023-01-17T16:05:42.857Z,97821.39
2023-01-17T16:08:39.193Z,97821.15
2023-01-17T16:11:11.393Z,97814.02
2023-01-17T16:13:53.887Z,97805.44
2023-01-17T16:16:27.520Z,97806.54
2023-01-17T16:19:01.096Z,97805.01
2023-01-17T16:21:35.641Z,97800.59
2023-01-17T16:24:09.854Z,97799.98
2023-01-17T16:26:38.977Z,97802.65
2023-01-17T16:29:11.004Z,97804.86
2023-01-17T16:31:40.723Z,97799.77
2023-01-17T16:34:13.397Z,97798.52
2023-01-17T16:36:46.793Z,97796.00
2023-01-17T16:39:21.276Z,97794.24
2023-01-17T16:41:58.010Z,97805.27
2023-01-17T16:44:26.532Z,97809.08
2023-01-17T16:46:59.557Z,97802.97
2023-01-17T16:49:32.923Z,97798.24
2023-01-17T16:52:01.885Z,97794.82
2023-01-17T16:54:37.396Z,97794.95
2023-01-17T16:57:07.249Z,97787.16
2023-01-17T16:59:55.564Z,97791.61
2023-01-17T17:02:23.239Z,97785.92
2023-01-17T17:04:52.244Z,97787.95
2023-01-17T17:10:04.828Z,97791.96
2023-01-17T17:15:50.987Z,97799.27
2023-01-17T17:18:41.366Z,97811.15
2023-01-17T17:21:33.263Z,97824.06
2023-01-17T17:24:37.011Z,97827.48
2023-01-17T17:27:31.494Z,97822.00
2023-01-17T17:30:19.947Z,97820.61
2023-01-17T17:33:29.159Z,97809.80
2023-01-17T17:36:22.642Z,97806.01
2023-01-17T17:39:17.933Z,97806.50
2023-01-17T17:41:57.898Z,97802.61
2023-01-17T17:44:27.702Z,97811.79
2023-01-17T17:47:19.269Z,97814.67
2023-01-17T17:50:15.271Z,97822.32
2023-01-17T17:53:04.228Z,97841.08
2023-01-17T17:55:35.968Z,97843.70
2023-01-17T17:58:23.189Z,97847.70
2023-01-17T18:01:25.954Z,97841.09
2023-01-17T18:03:59.718Z,97834.20
2023-01-17T18:06:46.648Z,97828.82
2023-01-17T18:09:38.947Z,97826.10
2023-01-17T18:12:30.792Z,97833.30
2023-01-17T18:15:05.818Z,97841.05
2023-01-17T18:18:16.457Z,97856.22
2023-01-17T18:20:56.826Z,97859.64
2023-01-17T18:23:57.772Z,97863.11
2023-01-17T18:27:10.371Z,97863.63
2023-01-17T18:29:44.545Z,97868.92
2023-01-17T18:32:46.346Z,97865.93
2023-01-17T18:35:54.811Z,97859.01
2023-01-17T18:38:53.977Z,97871.06
2023-01-17T18:41:46.885Z,97875.62
2023-01-17T18:44:43.624Z,97879.98
2023-01-17T18:47:45.286Z,97887.68
2023-01-17T18:50:41.982Z,97891.10
2023-01-17T18:53:38.667Z,97892.48
2023-01-17T18:56:46.472Z,97888.87
2023-01-17T19:00:04.744Z,97885.81
2023-01-17T19:03:01.526Z,97882.58
2023-01-17T19:05:43.439Z,97888.33
2023-01-17T19:08:27.347Z,97896.86
2023-01-17T19:11:43.697Z,97907.34
2023-01-17T19:17:47.218Z,97913.27
2023-01-17T19:21:11.355Z,97905.52
2023-01-17T19:24:06.004Z,97902.52
2023-01-17T19:27:07.489Z,97896.95
2023-01-17T19:30:19.761Z,97892.46
2023-01-17T19:36:52.308Z,97871.30
2023-01-17T19:39:34.969Z,97878.39
2023-01-17T19:42:49.432Z,97889.85
2023-01-17T19:46:06.278Z,97896.39
2023-01-17T19:49:14.177Z,97896.00
2023-01-17T19:52:16.334Z,97895.05
2023-01-17T19:55:15.005Z,97879.73
2023-01-17T19:58:17.317Z,97871.09
2023-01-17T20:01:58.556Z,97867.40
2023-01-17T20:04:51.024Z,97869.05
2023-01-17T20:11:20.464Z,97885.49
2023-01-17T20:14:40.941Z,97885.15
2023-01-17T20:17:43.731Z,97884.14
2023-01-17T20:20:58.038Z,97890.19
2023-01-17T20:23:46.674Z,97893.95
2023-01-17T20:26:44.525Z,97899.73
2023-01-17T20:29:27.688Z,97901.48
2023-01-17T20:32:36.241Z,97896.63
2023-01-17T20:36:10.027Z,97886.98
2023-01-17T20:42:40.884Z,97890.88
2023-01-17T20:45:39.631Z,97893.48
2023-01-17T20:48:46.364Z,97895.58
2023-01-17T20:51:25.927Z,97895.88
2023-01-17T20:54:27.670Z,97899.89
2023-01-17T20:57:30.693Z,97912.23
2023-01-17T21:00:41.439Z,97906.30
2023-01-17T21:03:35.109Z,97905.27
2023-01-17T21:06:31.767Z,97896.75
2023-01-17T21:09:14.001Z,97892.56
2023-01-17T21:12:05.811Z,97893.50
2023-01-17T21:15:03.807Z,97889.60
2023-01-17T21:18:08.764Z,97886.08
2023-01-17T21:21:09.437Z,97888.71
2023-01-17T21:23:44.352Z,97890.62
2023-01-17T21:26:52.474Z,97881.17
2023-01-17T21:29:43.928Z,97873.80
2023-01-17T21:32:38.527Z,97873.48
2023-01-17T21:35:43.109Z,97858.69
2023-01-17T21:38:52.342Z,97850.40
2023-01-17T21:42:13.066Z,97841.42
2023-01-17T21:45:14.028Z,97852.73
2023-01-17T21:48:25.986Z,97867.31
2023-01-17T21:51:11.586Z,97871.78
2023-01-17T21:54:10.083Z,97888.09
2023-01-17T21:57:18.331Z,97887.40
2023-01-17T22:00:15.056Z,97880.19
2023-01-17T22:02:53.699Z,97875.02
2023-01-17T22:05:46.469Z,97879.46
2023-01-17T22:08:40.953Z,97871.89
2023-01-17T22:11:37.675Z,97866.72
2023-01-17T22:14:34.599Z,97853.67
2023-01-17T22:17:39.172Z,97859.45
2023-01-17T22:20:54.763Z,97856.06
2023-01-17T22:23:56.751Z,97857.98
2023-01-17T22:27:17.756Z,97866.43
2023-01-17T22:30:38.053Z,97864.17
2023-01-17T22:33:45.331Z,97865.83
2023-01-17T22:36:47.290Z,97856.17
2023-01-17T22:39:55.229Z,97847.17
2023-01-17T22:42:56.137Z,97846.08
2023-01-17T22:46:09.190Z,97854.77
2023-01-17T22:48:54.050Z,97856.92
2023-01-17T22:52:09.114Z,97862.33
2023-01-17T22:55:20.118Z,97860.34
2023-01-17T22:58:19.963Z,97857.34
2023-01-17T23:00:50.339Z,97852.61
2023-01-17T23:03:53.789Z,97840.50
2023-01-17T23:06:47.767Z,97830.14
2023-01-17T23:09:42.009Z,97823.02
2023-01-17T23:12:17.017Z,97820.06
2023-01-17T23:15:50.948Z,97825.33
2023-01-17T23:19:07.086Z,97832.35
2023-01-17T23:22:21.329Z,97840.20
2023-01-17T23:25:19.250Z,97838.71
2023-01-17T23:28:29.637Z,97830.86
2023-01-17T23:31:27.678Z,97820.54
2023-01-17T23:34:47.708Z,97817.63
2023-01-17T23:37:59.997Z,97820.83
2023-01-17T23:41:23.443Z,97831.45
2023-01-17T23:44:05.614Z,97829.70
